sensor_id;sensor_type;location;lat;lon;timestamp;temperature;humidity
16060;DHT22;8134;49.552;7.632;2023-01-04T08:19:47;8.40;99.90
16060;DHT22;8134;49.552;7.632;2023-01-04T08:22:13;8.40;99.90
16060;DHT22;8134;49.552;7.632;2023-01-04T08:24:38;8.30;99.90
16060;DHT22;8134;49.552;7.632;2023-01-04T08:27:04;8.40;99.90
16060;DHT22;8134;49.552;7.632;2023-01-04T08:29:30;8.30;99.90
16060;DHT22;8134;49.552;7.632;2023-01-04T08:31:56;8.40;99.90
16060;DHT22;8134;49.552;7.632;2023-01-04T08:34:21;8.30;99.90
16060;DHT22;8134;49.552;7.632;2023-01-04T08:36:48;8.40;99.90
16060;DHT22;8134;49.552;7.632;2023-01-04T08:39:13;8.40;99.90
16060;DHT22;8134;49.552;7.632;2023-01-04T08:41:39;8.40;99.90
16060;DHT22;8134;49.552;7.632;2023-01-04T08:44:21;8.50;99.90
16060;DHT22;8134;49.552;7.632;2023-01-04T08:46:47;8.50;99.90
16060;DHT22;8134;49.552;7.632;2023-01-04T08:49:12;8.60;99.90
16060;DHT22;8134;49.552;7.632;2023-01-04T08:51:38;8.60;99.90
16060;DHT22;8134;49.552;7.632;2023-01-04T08:54:04;8.60;99.90
16060;DHT22;8134;49.552;7.632;2023-01-04T08:56:30;8.70;99.90
16060;DHT22;8134;49.552;7.632;2023-01-04T08:58:55;8.70;99.90
16060;DHT22;8134;49.552;7.632;2023-01-04T09:01:21;8.70;99.90
16060;DHT22;8134;49.552;7.632;2023-01-04T09:03:46;8.70;99.90
16060;DHT22;8134;49.552;7.632;2023-01-04T09:06:13;8.70;99.90
16060;DHT22;8134;49.552;7.632;2023-01-04T09:08:39;8.70;99.90
16060;DHT22;8134;49.552;7.632;2023-01-04T09:11:06;8.70;99.90
16060;DHT22;8134;49.552;7.632;2023-01-04T09:13:32;8.70;99.90
16060;DHT22;8134;49.552;7.632;2023-01-04T09:15:59;8.80;99.90
16060;DHT22;8134;49.552;7.632;2023-01-04T09:18:24;8.80;99.90
16060;DHT22;8134;49.552;7.632;2023-01-04T09:20:50;8.80;99.90
16060;DHT22;8134;49.552;7.632;2023-01-04T09:23:15;8.80;99.90
16060;DHT22;8134;49.552;7.632;2023-01-04T09:25:41;8.80;99.90
16060;DHT22;8134;49.552;7.632;2023-01-04T09:28:06;8.70;99.90
16060;DHT22;8134;49.552;7.632;2023-01-04T09:30:32;8.80;99.90
16060;DHT22;8134;49.552;7.632;2023-01-04T09:32:57;8.80;99.90
16060;DHT22;8134;49.552;7.632;2023-01-04T09:35:22;8.70;99.90
16060;DHT22;8134;49.552;7.632;2023-01-04T09:37:48;8.70;99.90
16060;DHT22;8134;49.552;7.632;2023-01-04T09:40:18;8.70;99.90
16060;DHT22;8134;49.552;7.632;2023-01-04T09:42:44;8.70;99.90
16060;DHT22;8134;49.552;7.632;2023-01-04T09:45:17;8.80;99.90
16060;DHT22;8134;49.552;7.632;2023-01-04T09:47:52;8.80;99.90
16060;DHT22;8134;49.552;7.632;2023-01-04T09:50:24;8.80;99.90
16060;DHT22;8134;49.552;7.632;2023-01-04T09:56:30;8.80;99.90
16060;DHT22;8134;49.552;7.632;2023-01-04T10:01:02;8.90;99.90
16060;DHT22;8134;49.552;7.632;2023-01-04T10:03:33;9.00;99.90
16060;DHT22;8134;49.552;7.632;2023-01-04T10:05:59;9.00;99.90
16060;DHT22;8134;49.552;7.632;2023-01-04T10:08:25;9.00;99.90
16060;DHT22;8134;49.552;7.632;2023-01-04T10:18:55;9.10;99.90
16060;DHT22;8134;49.552;7.632;2023-01-04T10:21:27;9.10;99.90
16060;DHT22;8134;49.552;7.632;2023-01-04T10:33:51;9.10;99.90
16060;DHT22;8134;49.552;7.632;2023-01-04T10:36:20;9.10;99.90
16060;DHT22;8134;49.552;7.632;2023-01-04T10:38:52;9.10;99.90
16060;DHT22;8134;49.552;7.632;2023-01-04T10:41:20;9.00;99.90
16060;DHT22;8134;49.552;7.632;2023-01-04T10:44:02;9.10;99.90
16060;DHT22;8134;49.552;7.632;2023-01-04T10:47:16;9.10;99.90
16060;DHT22;8134;49.552;7.632;2023-01-04T10:49:16;9.00;99.90
16060;DHT22;8134;49.552;7.632;2023-01-04T10:54:20;9.00;99.90
16060;DHT22;8134;49.552;7.632;2023-01-04T10:56:50;9.00;99.90
16060;DHT22;8134;49.552;7.632;2023-01-04T10:59:20;9.00;99.90
16060;DHT22;8134;49.552;7.632;2023-01-04T11:01:49;9.00;99.90
16060;DHT22;8134;49.552;7.632;2023-01-04T11:04:24;9.10;99.90
16060;DHT22;8134;49.552;7.632;2023-01-04T11:06:52;9.10;99.90
16060;DHT22;8134;49.552;7.632;2023-01-04T11:09:25;9.00;99.90
16060;DHT22;8134;49.552;7.632;2023-01-04T11:11:53;9.10;99.90
16060;DHT22;8134;49.552;7.632;2023-01-04T11:14:19;9.20;99.90
16060;DHT22;8134;49.552;7.632;2023-01-04T11:16:47;9.20;99.90
16060;DHT22;8134;49.552;7.632;2023-01-04T11:19:13;9.20;99.90
16060;DHT22;8134;49.552;7.632;2023-01-04T11:21:42;9.20;99.90
16060;DHT22;8134;49.552;7.632;2023-01-04T11:24:09;9.20;99.90
16060;DHT22;8134;49.552;7.632;2023-01-04T11:26:36;9.30;99.90
16060;DHT22;8134;49.552;7.632;2023-01-04T11:29:23;9.30;99.90
16060;DHT22;8134;49.552;7.632;2023-01-04T11:31:52;9.40;99.90
16060;DHT22;8134;49.552;7.632;2023-01-04T11:34:18;9.50;99.90
16060;DHT22;8134;49.552;7.632;2023-01-04T11:36:45;9.50;99.90
16060;DHT22;8134;49.552;7.632;2023-01-04T11:44:23;9.50;99.90
16060;DHT22;8134;49.552;7.632;2023-01-04T11:47:17;9.50;99.90
16060;DHT22;8134;49.552;7.632;2023-01-04T11:49:43;9.50;99.90
16060;DHT22;8134;49.552;7.632;2023-01-04T11:52:27;9.50;99.90
16060;DHT22;8134;49.552;7.632;2023-01-04T11:54:53;9.50;99.90
16060;DHT22;8134;49.552;7.632;2023-01-04T11:57:18;9.50;99.90
16060;DHT22;8134;49.552;7.632;2023-01-04T11:59:44;9.50;99.90
16060;DHT22;8134;49.552;7.632;2023-01-04T12:02:20;9.50;99.90
16060;DHT22;8134;49.552;7.632;2023-01-04T12:04:47;9.60;99.90
16060;DHT22;8134;49.552;7.632;2023-01-04T12:09:39;9.60;99.90
16060;DHT22;8134;49.552;7.632;2023-01-04T12:12:05;9.60;99.90
16060;DHT22;8134;49.552;7.632;2023-01-04T12:14:34;9.60;99.90
16060;DHT22;8134;49.552;7.632;2023-01-04T12:17:10;9.60;99.90
16060;DHT22;8134;49.552;7.632;2023-01-04T12:19:39;9.60;99.90
16060;DHT22;8134;49.552;7.632;2023-01-04T12:22:12;9.60;99.90
16060;DHT22;8134;49.552;7.632;2023-01-04T12:24:41;9.70;99.90
16060;DHT22;8134;49.552;7.632;2023-01-04T12:27:10;9.70;99.90
16060;DHT22;8134;49.552;7.632;2023-01-04T12:29:41;9.60;99.90
16060;DHT22;8134;49.552;7.632;2023-01-04T12:37:02;9.60;99.90
16060;DHT22;8134;49.552;7.632;2023-01-04T12:39:46;9.80;99.90
16060;DHT22;8134;49.552;7.632;2023-01-04T12:42:13;9.60;99.90
16060;DHT22;8134;49.552;7.632;2023-01-04T12:50:09;9.70;99.90
16060;DHT22;8134;49.552;7.632;2023-01-04T12:52:46;9.60;99.90
16060;DHT22;8134;49.552;7.632;2023-01-04T12:57:43;9.50;99.90
16060;DHT22;8134;49.552;7.632;2023-01-04T13:00:09;9.50;99.90
16060;DHT22;8134;49.552;7.632;2023-01-04T13:02:37;9.50;99.90
16060;DHT22;8134;49.552;7.632;2023-01-04T13:07:41;9.50;99.90
16060;DHT22;8134;49.552;7.632;2023-01-04T13:15:37;9.50;99.90
16060;DHT22;8134;49.552;7.632;2023-01-04T13:18:15;9.50;99.90
16060;DHT22;8134;49.552;7.632;2023-01-04T13:20:47;9.60;99.90
16060;DHT22;8134;49.552;7.632;2023-01-04T13:23:14;9.60;99.90
16060;DHT22;8134;49.552;7.632;2023-01-04T13:25:39;9.60;99.90
16060;DHT22;8134;49.552;7.632;2023-01-04T13:28:05;9.70;99.90
16060;DHT22;8134;49.552;7.632;2023-01-04T13:30:37;9.60;99.90
16060;DHT22;8134;49.552;7.632;2023-01-04T13:33:06;9.70;99.90
16060;DHT22;8134;49.552;7.632;2023-01-04T13:35:32;9.60;99.90
16060;DHT22;8134;49.552;7.632;2023-01-04T13:37:58;9.70;99.90
16060;DHT22;8134;49.552;7.632;2023-01-04T13:40:25;9.60;99.90
16060;DHT22;8134;49.552;7.632;2023-01-04T13:45:29;9.60;99.90
16060;DHT22;8134;49.552;7.632;2023-01-04T13:47:57;9.60;99.90
16060;DHT22;8134;49.552;7.632;2023-01-04T13:52:49;9.50;99.90
16060;DHT22;8134;49.552;7.632;2023-01-04T13:55:23;9.60;99.90
16060;DHT22;8134;49.552;7.632;2023-01-04T13:58:01;9.60;99.90
16060;DHT22;8134;49.552;7.632;2023-01-04T14:00:31;9.50;99.90
16060;DHT22;8134;49.552;7.632;2023-01-04T14:05:36;9.60;99.90
16060;DHT22;8134;49.552;7.632;2023-01-04T14:08:07;9.60;99.90
16060;DHT22;8134;49.552;7.632;2023-01-04T14:10:33;9.60;99.90
16060;DHT22;8134;49.552;7.632;2023-01-04T14:12:59;9.60;99.90
16060;DHT22;8134;49.552;7.632;2023-01-04T14:15:25;9.60;99.90
16060;DHT22;8134;49.552;7.632;2023-01-04T14:30:38;9.60;99.90
16060;DHT22;8134;49.552;7.632;2023-01-04T14:33:17;9.60;99.90
16060;DHT22;8134;49.552;7.632;2023-01-04T14:35:43;9.50;99.90
16060;DHT22;8134;49.552;7.632;2023-01-04T14:38:10;9.50;99.90
16060;DHT22;8134;49.552;7.632;2023-01-04T14:40:36;9.40;99.90
16060;DHT22;8134;49.552;7.632;2023-01-04T14:45:48;9.40;99.90
16060;DHT22;8134;49.552;7.632;2023-01-04T14:48:13;9.40;99.90
16060;DHT22;8134;49.552;7.632;2023-01-04T14:50:39;9.50;99.90
16060;DHT22;8134;49.552;7.632;2023-01-04T14:53:04;9.50;99.90
16060;DHT22;8134;49.552;7.632;2023-01-04T14:55:30;9.50;99.90
16060;DHT22;8134;49.552;7.632;2023-01-04T14:57:55;9.50;99.90
16060;DHT22;8134;49.552;7.632;2023-01-04T15:00:21;9.50;99.90
16060;DHT22;8134;49.552;7.632;2023-01-04T15:02:47;9.50;99.90
16060;DHT22;8134;49.552;7.632;2023-01-04T15:05:14;9.50;99.90
16060;DHT22;8134;49.552;7.632;2023-01-04T15:07:39;9.60;99.90
16060;DHT22;8134;49.552;7.632;2023-01-04T15:10:18;9.50;99.90
16060;DHT22;8134;49.552;7.632;2023-01-04T15:12:45;9.40;99.90
16060;DHT22;8134;49.552;7.632;2023-01-04T15:15:10;9.40;99.90
16060;DHT22;8134;49.552;7.632;2023-01-04T15:17:36;9.40;99.90
16060;DHT22;8134;49.552;7.632;2023-01-04T15:20:02;9.40;99.90
16060;DHT22;8134;49.552;7.632;2023-01-04T15:22:27;9.40;99.90
16060;DHT22;8134;49.552;7.632;2023-01-04T15:24:53;9.40;99.90
16060;DHT22;8134;49.552;7.632;2023-01-04T15:27:18;9.40;99.90
16060;DHT22;8134;49.552;7.632;2023-01-04T15:29:44;9.50;99.90
16060;DHT22;8134;49.552;7.632;2023-01-04T15:32:09;9.30;99.90
16060;DHT22;8134;49.552;7.632;2023-01-04T15:34:35;9.40;99.90
16060;DHT22;8134;49.552;7.632;2023-01-04T15:37:00;9.40;99.90
16060;DHT22;8134;49.552;7.632;2023-01-04T15:39:26;9.40;99.90
16060;DHT22;8134;49.552;7.632;2023-01-04T15:41:51;9.40;99.90
16060;DHT22;8134;49.552;7.632;2023-01-04T15:44:35;9.40;99.90
16060;DHT22;8134;49.552;7.632;2023-01-04T15:47:01;9.40;99.90
16060;DHT22;8134;49.552;7.632;2023-01-04T15:49:29;9.40;99.90
16060;DHT22;8134;49.552;7.632;2023-01-04T15:51:55;9.40;99.90
16060;DHT22;8134;49.552;7.632;2023-01-04T15:54:23;9.40;99.90
16060;DHT22;8134;49.552;7.632;2023-01-04T15:56:49;9.40;99.90
16060;DHT22;8134;49.552;7.632;2023-01-04T15:59:14;9.40;99.90
16060;DHT22;8134;49.552;7.632;2023-01-04T16:01:40;9.40;99.90
16060;DHT22;8134;49.552;7.632;2023-01-04T16:04:07;9.40;99.90
16060;DHT22;8134;49.552;7.632;2023-01-04T16:06:33;9.40;99.90
16060;DHT22;8134;49.552;7.632;2023-01-04T16:08:58;9.40;99.90
16060;DHT22;8134;49.552;7.632;2023-01-04T16:11:26;9.40;99.90
16060;DHT22;8134;49.552;7.632;2023-01-04T16:13:52;9.40;99.90
16060;DHT22;8134;49.552;7.632;2023-01-04T16:16:18;9.40;99.90
16060;DHT22;8134;49.552;7.632;2023-01-04T16:18:45;9.40;99.90
16060;DHT22;8134;49.552;7.632;2023-01-04T16:21:11;9.40;99.90
16060;DHT22;8134;49.552;7.632;2023-01-04T16:23:36;9.50;99.90
16060;DHT22;8134;49.552;7.632;2023-01-04T16:26:06;9.50;99.90
16060;DHT22;8134;49.552;7.632;2023-01-04T16:28:32;9.50;99.90
16060;DHT22;8134;49.552;7.632;2023-01-04T16:30:58;9.50;99.90
16060;DHT22;8134;49.552;7.632;2023-01-04T16:33:24;9.50;99.90
16060;DHT22;8134;49.552;7.632;2023-01-04T16:35:57;9.50;99.90
16060;DHT22;8134;49.552;7.632;2023-01-04T16:38:22;9.60;99.90
16060;DHT22;8134;49.552;7.632;2023-01-04T16:40:54;9.60;99.90
16060;DHT22;8134;49.552;7.632;2023-01-04T16:43:20;9.50;99.90
16060;DHT22;8134;49.552;7.632;2023-01-04T16:45:45;9.50;99.90
16060;DHT22;8134;49.552;7.632;2023-01-04T16:48:11;9.50;99.90
16060;DHT22;8134;49.552;7.632;2023-01-04T16:50:38;9.40;99.90
16060;DHT22;8134;49.552;7.632;2023-01-04T16:53:03;9.40;99.90
16060;DHT22;8134;49.552;7.632;2023-01-04T16:55:29;9.50;99.90
16060;DHT22;8134;49.552;7.632;2023-01-04T16:57:54;9.50;99.90
16060;DHT22;8134;49.552;7.632;2023-01-04T17:00:20;9.50;99.90
16060;DHT22;8134;49.552;7.632;2023-01-04T17:02:45;9.50;99.90
16060;DHT22;8134;49.552;7.632;2023-01-04T17:05:11;9.50;99.90
16060;DHT22;8134;49.552;7.632;2023-01-04T17:07:36;9.50;99.90
16060;DHT22;8134;49.552;7.632;2023-01-04T17:10:02;9.50;99.90
16060;DHT22;8134;49.552;7.632;2023-01-04T17:12:27;9.50;99.90
16060;DHT22;8134;49.552;7.632;2023-01-04T17:14:53;9.50;99.90
16060;DHT22;8134;49.552;7.632;2023-01-04T17:17:20;9.50;99.90
16060;DHT22;8134;49.552;7.632;2023-01-04T17:19:46;9.50;99.90
16060;DHT22;8134;49.552;7.632;2023-01-04T17:22:11;9.50;99.90
16060;DHT22;8134;49.552;7.632;2023-01-04T17:24:37;9.60;99.90
16060;DHT22;8134;49.552;7.632;2023-01-04T17:27:02;9.60;99.90
16060;DHT22;8134;49.552;7.632;2023-01-04T17:29:28;9.60;99.90
16060;DHT22;8134;49.552;7.632;2023-01-04T17:31:53;9.60;99.90
16060;DHT22;8134;49.552;7.632;2023-01-04T17:34:19;9.60;99.90
16060;DHT22;8134;49.552;7.632;2023-01-04T17:36:46;9.60;99.90
16060;DHT22;8134;49.552;7.632;2023-01-04T17:39:11;9.60;99.90
16060;DHT22;8134;49.552;7.632;2023-01-04T17:41:37;9.60;99.90
16060;DHT22;8134;49.552;7.632;2023-01-04T17:44:04;9.60;99.90
16060;DHT22;8134;49.552;7.632;2023-01-04T17:46:33;9.60;99.90
16060;DHT22;8134;49.552;7.632;2023-01-04T17:49:00;9.60;99.90
16060;DHT22;8134;49.552;7.632;2023-01-04T17:51:25;9.60;99.90
16060;DHT22;8134;49.552;7.632;2023-01-04T17:53:55;9.60;99.90
16060;DHT22;8134;49.552;7.632;2023-01-04T17:56:21;9.60;99.90
16060;DHT22;8134;49.552;7.632;2023-01-04T17:58:47;9.60;99.90
16060;DHT22;8134;49.552;7.632;2023-01-04T18:01:23;9.70;99.90
16060;DHT22;8134;49.552;7.632;2023-01-04T18:03:50;9.70;99.90
16060;DHT22;8134;49.552;7.632;2023-01-04T18:06:16;9.70;99.90
16060;DHT22;8134;49.552;7.632;2023-01-04T18:08:41;9.70;99.90
16060;DHT22;8134;49.552;7.632;2023-01-04T18:11:07;9.60;99.90
16060;DHT22;8134;49.552;7.632;2023-01-04T18:13:33;9.60;99.90
16060;DHT22;8134;49.552;7.632;2023-01-04T18:15:59;9.70;99.90
16060;DHT22;8134;49.552;7.632;2023-01-04T18:18:25;9.70;99.90
16060;DHT22;8134;49.552;7.632;2023-01-04T18:20:51;9.70;99.90
16060;DHT22;8134;49.552;7.632;2023-01-04T18:23:16;9.80;99.90
16060;DHT22;8134;49.552;7.632;2023-01-04T18:25:42;9.70;99.90
16060;DHT22;8134;49.552;7.632;2023-01-04T18:28:08;9.80;99.90
16060;DHT22;8134;49.552;7.632;2023-01-04T18:30:34;9.70;99.90
16060;DHT22;8134;49.552;7.632;2023-01-04T18:33:00;9.70;99.90
16060;DHT22;8134;49.552;7.632;2023-01-04T18:35:25;9.70;99.90
16060;DHT22;8134;49.552;7.632;2023-01-04T18:37:51;9.80;99.90
16060;DHT22;8134;49.552;7.632;2023-01-04T18:40:16;9.80;99.90
16060;DHT22;8134;49.552;7.632;2023-01-04T18:42:45;9.80;99.90
16060;DHT22;8134;49.552;7.632;2023-01-04T18:45:11;9.80;99.90
16060;DHT22;8134;49.552;7.632;2023-01-04T18:47:37;9.80;99.90
16060;DHT22;8134;49.552;7.632;2023-01-04T18:50:02;9.80;99.90
16060;DHT22;8134;49.552;7.632;2023-01-04T18:52:28;9.90;99.90
16060;DHT22;8134;49.552;7.632;2023-01-04T18:54:53;9.90;99.90
16060;DHT22;8134;49.552;7.632;2023-01-04T18:57:19;9.90;99.90
16060;DHT22;8134;49.552;7.632;2023-01-04T18:59:44;9.90;99.90
16060;DHT22;8134;49.552;7.632;2023-01-04T19:02:14;9.90;99.90
16060;DHT22;8134;49.552;7.632;2023-01-04T19:04:40;9.90;99.90
16060;DHT22;8134;49.552;7.632;2023-01-04T19:07:06;9.90;99.90
16060;DHT22;8134;49.552;7.632;2023-01-04T19:09:31;9.90;99.90
16060;DHT22;8134;49.552;7.632;2023-01-04T19:11:57;9.90;99.90
16060;DHT22;8134;49.552;7.632;2023-01-04T19:14:22;9.90;99.90
16060;DHT22;8134;49.552;7.632;2023-01-04T19:16:48;9.90;99.90
16060;DHT22;8134;49.552;7.632;2023-01-04T19:19:13;9.90;99.90
16060;DHT22;8134;49.552;7.632;2023-01-04T19:21:39;9.90;99.90
16060;DHT22;8134;49.552;7.632;2023-01-04T19:24:04;10.00;99.90
16060;DHT22;8134;49.552;7.632;2023-01-04T19:26:30;9.90;99.90
16060;DHT22;8134;49.552;7.632;2023-01-04T19:28:56;9.90;99.90
16060;DHT22;8134;49.552;7.632;2023-01-04T19:31:21;10.00;99.90
16060;DHT22;8134;49.552;7.632;2023-01-04T19:33:47;9.90;99.90
16060;DHT22;8134;49.552;7.632;2023-01-04T19:36:13;9.90;99.90
16060;DHT22;8134;49.552;7.632;2023-01-04T19:38:39;10.00;99.90
16060;DHT22;8134;49.552;7.632;2023-01-04T19:41:05;9.90;99.90
16060;DHT22;8134;49.552;7.632;2023-01-04T19:43:31;10.00;99.90
16060;DHT22;8134;49.552;7.632;2023-01-04T19:45:57;9.90;99.90
16060;DHT22;8134;49.552;7.632;2023-01-04T19:48:22;9.90;99.90
16060;DHT22;8134;49.552;7.632;2023-01-04T19:50:48;9.90;99.90
16060;DHT22;8134;49.552;7.632;2023-01-04T19:53:14;10.00;99.90
16060;DHT22;8134;49.552;7.632;2023-01-04T19:55:40;10.00;99.90
16060;DHT22;8134;49.552;7.632;2023-01-04T19:58:06;10.00;99.90
16060;DHT22;8134;49.552;7.632;2023-01-04T20:00:31;10.00;99.90
16060;DHT22;8134;49.552;7.632;2023-01-04T20:02:57;10.00;99.90
16060;DHT22;8134;49.552;7.632;2023-01-04T20:05:22;9.90;99.90
16060;DHT22;8134;49.552;7.632;2023-01-04T20:07:48;10.00;99.90
16060;DHT22;8134;49.552;7.632;2023-01-04T20:10:15;9.90;99.90
16060;DHT22;8134;49.552;7.632;2023-01-04T20:12:40;10.00;99.90
16060;DHT22;8134;49.552;7.632;2023-01-04T20:15:06;10.10;99.90
16060;DHT22;8134;49.552;7.632;2023-01-04T20:17:31;10.00;99.90
16060;DHT22;8134;49.552;7.632;2023-01-04T20:19:57;10.00;99.90
16060;DHT22;8134;49.552;7.632;2023-01-04T20:22:23;10.10;99.90
16060;DHT22;8134;49.552;7.632;2023-01-04T20:24:48;10.10;99.90
16060;DHT22;8134;49.552;7.632;2023-01-04T20:27:15;10.20;99.90
16060;DHT22;8134;49.552;7.632;2023-01-04T20:29:40;10.30;99.90
16060;DHT22;8134;49.552;7.632;2023-01-04T20:32:06;10.40;99.90
16060;DHT22;8134;49.552;7.632;2023-01-04T20:34:32;10.50;99.90
16060;DHT22;8134;49.552;7.632;2023-01-04T20:36:57;10.50;99.90
16060;DHT22;8134;49.552;7.632;2023-01-04T20:39:23;10.50;99.90
16060;DHT22;8134;49.552;7.632;2023-01-04T20:41:48;10.60;99.90
16060;DHT22;8134;49.552;7.632;2023-01-04T20:44:33;10.70;99.90
16060;DHT22;8134;49.552;7.632;2023-01-04T20:46:58;10.80;99.90
16060;DHT22;8134;49.552;7.632;2023-01-04T20:49:24;10.80;99.90
16060;DHT22;8134;49.552;7.632;2023-01-04T20:51:50;10.90;99.90
16060;DHT22;8134;49.552;7.632;2023-01-04T20:54:15;10.90;99.90
16060;DHT22;8134;49.552;7.632;2023-01-04T20:56:41;11.00;99.90
16060;DHT22;8134;49.552;7.632;2023-01-04T20:59:07;11.00;99.90
16060;DHT22;8134;49.552;7.632;2023-01-04T21:01:32;11.00;99.90
16060;DHT22;8134;49.552;7.632;2023-01-04T21:03:58;11.00;99.90
16060;DHT22;8134;49.552;7.632;2023-01-04T21:06:23;11.00;99.90
16060;DHT22;8134;49.552;7.632;2023-01-04T21:08:49;11.00;99.90
16060;DHT22;8134;49.552;7.632;2023-01-04T21:11:16;11.10;99.90
16060;DHT22;8134;49.552;7.632;2023-01-04T21:13:42;11.00;99.90
16060;DHT22;8134;49.552;7.632;2023-01-04T21:16:08;11.00;99.90
16060;DHT22;8134;49.552;7.632;2023-01-04T21:18:34;10.90;99.90
16060;DHT22;8134;49.552;7.632;2023-01-04T21:21:04;10.90;99.90
16060;DHT22;8134;49.552;7.632;2023-01-04T21:23:29;10.90;99.90
16060;DHT22;8134;49.552;7.632;2023-01-04T21:25:55;10.90;99.90
16060;DHT22;8134;49.552;7.632;2023-01-04T21:28:21;10.90;99.90
16060;DHT22;8134;49.552;7.632;2023-01-04T21:30:47;10.90;99.90
16060;DHT22;8134;49.552;7.632;2023-01-04T21:33:13;10.90;99.90
16060;DHT22;8134;49.552;7.632;2023-01-04T21:35:39;10.80;99.90
16060;DHT22;8134;49.552;7.632;2023-01-04T21:38:05;10.90;99.90
16060;DHT22;8134;49.552;7.632;2023-01-04T21:40:31;10.80;99.90
16060;DHT22;8134;49.552;7.632;2023-01-04T21:42:57;10.80;99.90
16060;DHT22;8134;49.552;7.632;2023-01-04T21:45:23;10.80;99.90
16060;DHT22;8134;49.552;7.632;2023-01-04T21:47:48;10.80;99.90
16060;DHT22;8134;49.552;7.632;2023-01-04T21:50:14;10.80;99.90
16060;DHT22;8134;49.552;7.632;2023-01-04T21:52:40;10.80;99.90
16060;DHT22;8134;49.552;7.632;2023-01-04T21:55:05;10.70;99.90
16060;DHT22;8134;49.552;7.632;2023-01-04T21:57:32;10.70;99.90
16060;DHT22;8134;49.552;7.632;2023-01-04T21:59:58;10.70;99.90
16060;DHT22;8134;49.552;7.632;2023-01-04T22:02:23;10.70;99.90
16060;DHT22;8134;49.552;7.632;2023-01-04T22:04:48;10.70;99.90
16060;DHT22;8134;49.552;7.632;2023-01-04T22:07:14;10.60;99.90
16060;DHT22;8134;49.552;7.632;2023-01-04T22:09:39;10.70;99.90
16060;DHT22;8134;49.552;7.632;2023-01-04T22:12:05;10.60;99.90
16060;DHT22;8134;49.552;7.632;2023-01-04T22:14:31;10.60;99.90
16060;DHT22;8134;49.552;7.632;2023-01-04T22:16:56;10.70;99.90
16060;DHT22;8134;49.552;7.632;2023-01-04T22:19:22;10.70;99.90
16060;DHT22;8134;49.552;7.632;2023-01-04T22:21:47;10.70;99.90
16060;DHT22;8134;49.552;7.632;2023-01-04T22:24:13;10.60;99.90
16060;DHT22;8134;49.552;7.632;2023-01-04T22:26:39;10.60;99.90
16060;DHT22;8134;49.552;7.632;2023-01-04T22:29:05;10.70;99.90
16060;DHT22;8134;49.552;7.632;2023-01-04T22:31:30;10.60;99.90
16060;DHT22;8134;49.552;7.632;2023-01-04T22:33:56;10.60;99.90
16060;DHT22;8134;49.552;7.632;2023-01-04T22:36:22;10.70;99.90
16060;DHT22;8134;49.552;7.632;2023-01-04T22:38:47;10.70;99.90
16060;DHT22;8134;49.552;7.632;2023-01-04T22:41:14;10.60;99.90
16060;DHT22;8134;49.552;7.632;2023-01-04T22:43:43;10.60;99.90
16060;DHT22;8134;49.552;7.632;2023-01-04T22:46:13;10.60;99.90
